createdAt,value
2023-05-12T00:01:01.814Z,17.17
2023-05-12T00:03:28.483Z,17.30
2023-05-12T00:05:55.131Z,17.23
2023-05-12T00:08:21.748Z,17.13
2023-05-12T00:10:48.403Z,16.77
2023-05-12T00:13:15.247Z,17.25
2023-05-12T00:15:41.898Z,16.83
2023-05-12T00:18:08.487Z,17.63
2023-05-12T00:20:35.081Z,16.67
2023-05-12T00:23:01.651Z,17.75
2023-05-12T00:25:28.215Z,17.30
2023-05-12T00:27:54.808Z,16.83
2023-05-12T00:30:21.894Z,17.52
2023-05-12T00:32:49.211Z,18.17
2023-05-12T00:35:16.938Z,18.17
2023-05-12T00:37:44.094Z,17.58
2023-05-12T00:40:10.980Z,18.25
2023-05-12T00:42:37.754Z,17.77
2023-05-12T00:45:06.219Z,18.73
2023-05-12T00:47:32.925Z,18.75
2023-05-12T00:50:00.222Z,17.90
2023-05-12T00:52:27.634Z,18.40
2023-05-12T00:54:54.871Z,17.70
2023-05-12T00:57:22.785Z,18.35
2023-05-12T00:59:49.357Z,18.23
2023-05-12T01:02:16.127Z,17.30
2023-05-12T01:04:42.854Z,18.50
2023-05-12T01:07:15.978Z,19.25
2023-05-12T01:09:42.528Z,19.00
2023-05-12T01:12:09.696Z,17.95
2023-05-12T01:14:36.297Z,17.55
2023-05-12T01:17:07.921Z,15.23
2023-05-12T01:19:40.723Z,13.15
2023-05-12T01:22:08.618Z,12.70
2023-05-12T01:24:51.919Z,9.05
2023-05-12T01:27:20.524Z,7.15
2023-05-12T01:29:48.280Z,5.80
2023-05-12T01:32:16.061Z,5.82
2023-05-12T01:34:43.272Z,5.50
2023-05-12T01:37:10.654Z,6.38
2023-05-12T01:39:37.930Z,5.80
2023-05-12T01:42:05.732Z,6.13
2023-05-12T01:44:32.495Z,6.63
2023-05-12T01:46:59.514Z,7.10
2023-05-12T01:49:26.341Z,7.22
2023-05-12T01:51:52.946Z,7.55
2023-05-12T01:54:19.667Z,7.22
2023-05-12T01:56:46.265Z,7.47
2023-05-12T01:59:12.793Z,8.15
2023-05-12T02:01:39.463Z,8.13
2023-05-12T02:04:08.040Z,7.78
2023-05-12T02:06:34.688Z,8.18
2023-05-12T02:09:01.370Z,8.77
2023-05-12T02:11:27.904Z,7.72
2023-05-12T02:13:54.565Z,8.15
2023-05-12T02:16:21.311Z,7.80
2023-05-12T02:18:48.080Z,7.63
2023-05-12T02:21:14.691Z,7.55
2023-05-12T02:23:41.389Z,7.00
2023-05-12T02:26:08.002Z,7.97
2023-05-12T02:28:34.602Z,7.18
2023-05-12T02:31:01.128Z,8.10
2023-05-12T02:33:27.709Z,7.57
2023-05-12T02:35:54.281Z,6.40
2023-05-12T02:38:20.833Z,6.97
2023-05-12T02:40:47.923Z,6.85
2023-05-12T02:43:14.475Z,6.75
2023-05-12T02:45:41.657Z,7.22
2023-05-12T02:48:08.345Z,7.57
2023-05-12T02:50:35.006Z,6.72
2023-05-12T02:53:01.647Z,6.97
2023-05-12T02:55:30.160Z,7.80
2023-05-12T02:57:57.085Z,7.18
2023-05-12T03:00:23.704Z,6.93
2023-05-12T03:02:50.552Z,6.90
2023-05-12T03:05:17.383Z,7.38
2023-05-12T03:07:44.094Z,8.00
2023-05-12T03:10:10.788Z,7.68
2023-05-12T03:12:37.418Z,7.70
2023-05-12T03:15:04.828Z,8.82
2023-05-12T03:17:31.472Z,8.07
2023-05-12T03:19:58.050Z,7.72
2023-05-12T03:22:24.645Z,7.85
2023-05-12T03:24:51.921Z,8.23
2023-05-12T03:27:19.002Z,8.68
2023-05-12T03:29:46.140Z,8.15
2023-05-12T03:32:13.398Z,7.38
2023-05-12T03:34:40.136Z,7.25
2023-05-12T03:37:06.774Z,7.43
2023-05-12T03:39:33.381Z,7.35
2023-05-12T03:42:00.016Z,7.47
2023-05-12T03:44:26.559Z,6.88
2023-05-12T03:46:53.236Z,7.85
2023-05-12T03:49:19.873Z,6.75
2023-05-12T03:51:46.710Z,7.32
2023-05-12T03:54:13.375Z,7.68
2023-05-12T03:56:39.908Z,6.57
2023-05-12T03:59:06.566Z,6.07
2023-05-12T04:01:33.163Z,6.25
2023-05-12T04:03:59.836Z,6.57
2023-05-12T04:06:26.459Z,6.63
2023-05-12T04:08:53.482Z,6.50
2023-05-12T04:11:20.044Z,6.10
2023-05-12T04:13:46.571Z,5.93
2023-05-12T04:16:13.254Z,5.32
2023-05-12T04:18:39.876Z,4.75
2023-05-12T04:21:06.509Z,4.00
2023-05-12T04:23:33.147Z,4.45
2023-05-12T04:25:59.791Z,4.95
2023-05-12T04:28:26.381Z,3.70
2023-05-12T04:30:52.914Z,4.07
2023-05-12T04:33:19.506Z,3.78
2023-05-12T04:35:46.803Z,3.40
2023-05-12T04:38:13.468Z,3.67
2023-05-12T04:40:40.162Z,3.78
2023-05-12T04:43:06.739Z,3.92
2023-05-12T04:45:33.338Z,3.63
2023-05-12T04:47:59.959Z,3.10
2023-05-12T04:50:26.830Z,3.78
2023-05-12T04:52:53.387Z,3.20
2023-05-12T04:55:20.324Z,3.30
2023-05-12T04:57:46.959Z,3.38
2023-05-12T05:00:14.949Z,3.65
2023-05-12T05:02:41.701Z,3.13
2023-05-12T05:05:08.784Z,3.55
2023-05-12T05:07:35.421Z,3.70
2023-05-12T05:10:02.158Z,4.20
2023-05-12T05:12:28.905Z,4.30
2023-05-12T05:14:55.513Z,4.97
2023-05-12T05:17:22.275Z,5.88
2023-05-12T05:19:57.304Z,7.50
2023-05-12T05:22:25.541Z,7.50
2023-05-12T05:24:52.255Z,8.93
2023-05-12T05:27:19.199Z,9.60
2023-05-12T05:29:45.821Z,10.43
2023-05-12T05:32:12.441Z,10.68
2023-05-12T05:34:39.193Z,11.48
2023-05-12T05:37:05.909Z,10.20
2023-05-12T05:39:32.488Z,10.88
2023-05-12T05:41:59.088Z,11.13
2023-05-12T05:44:26.102Z,11.27
2023-05-12T05:46:52.837Z,9.88
2023-05-12T05:49:19.676Z,11.23
2023-05-12T05:51:46.334Z,10.13
2023-05-12T05:54:12.867Z,10.77
2023-05-12T05:56:39.512Z,11.65
2023-05-12T05:59:06.380Z,12.00
2023-05-12T06:01:33.157Z,11.60
2023-05-12T06:03:59.970Z,12.10
2023-05-12T06:06:26.666Z,12.82
2023-05-12T06:08:55.997Z,12.43
2023-05-12T06:11:22.950Z,11.48
2023-05-12T06:13:49.925Z,12.82
2023-05-12T06:16:16.614Z,14.57
2023-05-12T06:18:43.305Z,15.82
2023-05-12T06:21:09.943Z,15.75
2023-05-12T06:23:36.556Z,16.48
2023-05-12T06:26:03.269Z,17.20
2023-05-12T06:28:29.938Z,19.98
2023-05-12T06:30:56.534Z,20.65
2023-05-12T06:33:23.171Z,21.17
2023-05-12T06:35:49.744Z,20.90
2023-05-12T06:38:16.546Z,23.90
2023-05-12T06:40:43.215Z,23.83
2023-05-12T06:43:09.807Z,25.15
2023-05-12T06:45:36.788Z,24.42
2023-05-12T06:48:06.000Z,26.52
2023-05-12T06:50:32.685Z,27.02
2023-05-12T06:52:59.268Z,28.33
2023-05-12T06:55:25.939Z,28.10
2023-05-12T06:57:55.781Z,29.13
2023-05-12T07:00:26.634Z,30.15
2023-05-12T07:02:53.451Z,31.00
2023-05-12T07:05:21.218Z,31.20
2023-05-12T07:07:48.106Z,32.53
2023-05-12T07:10:15.050Z,33.03
2023-05-12T07:12:41.685Z,33.72
2023-05-12T07:15:09.107Z,33.67
2023-05-12T07:17:36.080Z,32.47
2023-05-12T07:20:04.924Z,31.13
2023-05-12T07:22:32.712Z,30.08
2023-05-12T07:24:59.537Z,30.15
2023-05-12T07:27:26.176Z,29.05
2023-05-12T07:29:52.725Z,30.55
2023-05-12T07:32:19.330Z,28.73
2023-05-12T07:34:45.889Z,27.83
2023-05-12T07:37:12.542Z,25.77
2023-05-12T07:39:39.660Z,26.27
2023-05-12T07:42:06.319Z,25.50
2023-05-12T07:44:33.614Z,27.95
2023-05-12T07:47:00.278Z,25.17
2023-05-12T07:49:26.987Z,26.10
2023-05-12T07:51:53.536Z,25.83
2023-05-12T07:54:20.080Z,25.52
2023-05-12T07:56:46.668Z,26.75
2023-05-12T07:59:14.476Z,24.20
2023-05-12T08:01:41.382Z,24.30
2023-05-12T08:04:08.109Z,24.15
2023-05-12T08:06:35.126Z,25.02
2023-05-12T08:09:01.720Z,26.20
2023-05-12T08:11:28.446Z,28.70
2023-05-12T08:13:55.029Z,30.63
2023-05-12T08:16:21.794Z,32.15
2023-05-12T08:18:48.401Z,32.67
2023-05-12T08:21:15.099Z,31.70
2023-05-12T08:23:41.684Z,28.77
2023-05-12T08:26:08.260Z,26.70
2023-05-12T08:28:34.921Z,26.58
2023-05-12T08:31:04.859Z,25.38
2023-05-12T08:33:31.803Z,24.88
2023-05-12T08:35:58.611Z,21.95
2023-05-12T08:38:25.181Z,18.48
2023-05-12T08:41:22.613Z,17.10
2023-05-12T08:43:51.265Z,13.73
2023-05-12T08:46:18.426Z,10.98
2023-05-12T08:48:50.683Z,11.05
2023-05-12T08:51:19.327Z,10.15
2023-05-12T08:53:49.013Z,8.80
2023-05-12T08:58:49.804Z,6.55
2023-05-12T09:01:17.510Z,5.95
2023-05-12T09:03:44.248Z,6.28
2023-05-12T09:06:11.913Z,5.43
2023-05-12T09:08:40.660Z,5.53
2023-05-12T09:11:11.273Z,5.25
2023-05-12T09:13:49.639Z,4.05
2023-05-12T09:16:24.915Z,4.40
2023-05-12T09:18:55.149Z,4.15
2023-05-12T09:21:22.285Z,4.07
2023-05-12T09:23:57.920Z,4.22
2023-05-12T09:26:26.185Z,4.15
2023-05-12T09:28:54.501Z,4.00
2023-05-12T09:31:22.760Z,3.63
2023-05-12T09:33:51.053Z,3.40
2023-05-12T09:36:22.253Z,3.63
2023-05-12T09:39:10.085Z,3.35
2023-05-12T09:41:37.241Z,3.90
2023-05-12T09:44:05.131Z,3.22
2023-05-12T09:46:31.951Z,3.50
2023-05-12T09:48:59.155Z,3.75
2023-05-12T09:51:30.674Z,3.22
2023-05-12T09:53:58.402Z,3.47
2023-05-12T09:56:27.950Z,3.63
2023-05-12T09:58:57.182Z,3.15
2023-05-12T10:01:25.014Z,3.38
2023-05-12T10:03:54.836Z,3.25
2023-05-12T10:06:27.048Z,3.30
2023-05-12T10:09:01.701Z,3.28
2023-05-12T10:11:29.174Z,2.97
2023-05-12T10:13:57.002Z,3.17
2023-05-12T10:16:24.379Z,3.00
2023-05-12T10:18:51.937Z,2.33
2023-05-12T10:21:19.164Z,2.35
2023-05-12T10:23:46.807Z,2.90
2023-05-12T10:26:14.412Z,2.58
2023-05-12T10:28:42.993Z,2.53
2023-05-12T10:31:10.296Z,2.97
2023-05-12T10:33:37.017Z,2.40
2023-05-12T10:36:04.141Z,2.47
2023-05-12T10:38:37.360Z,2.85
2023-05-12T10:41:06.879Z,2.85
2023-05-12T10:43:48.165Z,2.72
2023-05-12T10:46:21.038Z,4.00
2023-05-12T10:49:10.074Z,2.85
2023-05-12T10:51:42.751Z,3.08
2023-05-12T10:54:11.196Z,3.00
2023-05-12T10:56:38.473Z,1.98
2023-05-12T10:59:20.492Z,2.08
2023-05-12T11:02:03.683Z,1.77
2023-05-12T11:05:00.888Z,2.25
2023-05-12T11:07:33.378Z,2.30
2023-05-12T11:10:05.731Z,2.43
2023-05-12T11:12:35.450Z,2.40
2023-05-12T11:15:03.654Z,2.83
2023-05-12T11:17:30.667Z,2.47
2023-05-12T11:19:58.111Z,2.20
2023-05-12T11:22:25.202Z,2.30
2023-05-12T11:24:53.417Z,2.10
2023-05-12T11:27:22.832Z,2.30
2023-05-12T11:30:01.387Z,2.20
2023-05-12T11:32:29.620Z,2.28
2023-05-12T11:34:56.696Z,2.30
2023-05-12T11:37:23.381Z,2.08
2023-05-12T11:39:50.100Z,2.13
2023-05-12T11:42:20.099Z,1.80
2023-05-12T11:44:48.906Z,1.38
2023-05-12T11:47:16.794Z,2.10
2023-05-12T11:49:51.579Z,1.90
2023-05-12T11:52:20.079Z,2.00
2023-05-12T11:54:57.572Z,1.40
2023-05-12T11:57:34.388Z,1.70
2023-05-12T12:00:04.337Z,2.00
2023-05-12T12:02:31.607Z,2.72
2023-05-12T12:04:58.254Z,1.02
2023-05-12T12:07:32.124Z,1.15
2023-05-12T12:09:59.764Z,1.20
2023-05-12T12:12:26.380Z,1.77
2023-05-12T12:14:53.104Z,1.50
2023-05-12T12:17:19.622Z,1.40
2023-05-12T12:19:47.800Z,1.60
2023-05-12T12:22:14.537Z,1.55
2023-05-12T12:24:41.134Z,1.75
2023-05-12T12:27:07.726Z,1.65
2023-05-12T12:29:34.347Z,1.65
2023-05-12T12:32:01.053Z,1.75
2023-05-12T12:34:27.990Z,1.27
2023-05-12T12:36:54.603Z,1.55
2023-05-12T12:39:21.804Z,1.75
2023-05-12T12:41:48.454Z,1.98
2023-05-12T12:44:15.759Z,1.80
2023-05-12T12:46:42.356Z,1.65
2023-05-12T12:49:09.116Z,1.83
2023-05-12T12:51:45.557Z,1.60
2023-05-12T12:54:13.649Z,1.77
2023-05-12T12:56:40.289Z,1.90
2023-05-12T12:59:06.815Z,1.65
2023-05-12T13:01:34.000Z,1.70
2023-05-12T13:04:01.236Z,2.03
2023-05-12T13:06:29.299Z,2.22
2023-05-12T13:08:56.533Z,2.13
2023-05-12T13:11:23.326Z,1.88
2023-05-12T13:13:49.990Z,1.90
2023-05-12T13:16:16.594Z,2.10
2023-05-12T13:18:43.389Z,1.88
2023-05-12T13:21:10.059Z,2.00
2023-05-12T13:23:36.712Z,2.00
2023-05-12T13:26:03.752Z,1.75
2023-05-12T13:28:30.466Z,1.88
2023-05-12T13:30:57.256Z,2.13
2023-05-12T13:33:23.954Z,1.92
2023-05-12T13:35:50.690Z,2.20
2023-05-12T13:38:17.751Z,1.92
2023-05-12T13:40:44.360Z,2.80
2023-05-12T13:43:10.936Z,2.97
2023-05-12T13:45:37.491Z,2.08
2023-05-12T13:48:04.279Z,2.72
2023-05-12T13:50:33.308Z,2.72
2023-05-12T13:53:00.220Z,3.00
2023-05-12T13:55:27.200Z,2.58
2023-05-12T13:57:53.962Z,2.40
2023-05-12T14:00:20.842Z,2.45
2023-05-12T14:02:47.556Z,2.90
2023-05-12T14:05:14.324Z,2.40
2023-05-12T14:07:42.642Z,2.35
2023-05-12T14:10:10.234Z,2.92
2023-05-12T14:12:41.246Z,2.42
2023-05-12T14:15:21.805Z,2.40
2023-05-12T14:17:53.002Z,2.30
2023-05-12T14:20:19.821Z,2.72
2023-05-12T14:22:46.392Z,2.70
2023-05-12T14:25:13.080Z,2.60
2023-05-12T14:27:39.678Z,2.47
2023-05-12T14:30:07.648Z,2.50
2023-05-12T14:32:34.487Z,2.42
2023-05-12T14:35:01.130Z,2.60
2023-05-12T14:37:27.733Z,2.50
2023-05-12T14:39:56.793Z,2.60
2023-05-12T14:42:24.004Z,2.47
2023-05-12T14:44:50.585Z,2.22
2023-05-12T14:47:17.293Z,2.53
2023-05-12T14:49:45.603Z,1.85
2023-05-12T14:52:12.472Z,1.95
2023-05-12T14:54:39.034Z,2.20
2023-05-12T14:57:06.004Z,2.58
2023-05-12T14:59:32.796Z,2.58
2023-05-12T15:01:59.733Z,2.33
2023-05-12T15:04:27.590Z,2.33
2023-05-12T15:06:54.145Z,2.20
2023-05-12T15:09:20.775Z,2.00
2023-05-12T15:11:48.110Z,2.33
2023-05-12T15:14:14.745Z,2.22
2023-05-12T15:16:41.762Z,2.45
2023-05-12T15:19:08.755Z,2.47
2023-05-12T15:21:36.732Z,2.35
2023-05-12T15:24:03.770Z,2.72
2023-05-12T15:26:34.253Z,2.05
2023-05-12T15:29:02.457Z,2.50
2023-05-12T15:31:30.075Z,2.83
2023-05-12T15:33:57.693Z,2.20
2023-05-12T15:36:24.285Z,2.60
2023-05-12T15:38:50.883Z,2.63
2023-05-12T15:41:17.557Z,2.33
2023-05-12T15:43:44.258Z,2.65
2023-05-12T15:46:11.773Z,2.42
2023-05-12T15:48:39.423Z,2.30
2023-05-12T15:51:06.870Z,2.00
2023-05-12T15:53:33.739Z,2.13
2023-05-12T15:56:01.325Z,3.95
2023-05-12T15:58:28.517Z,2.10
2023-05-12T16:00:55.988Z,2.13
2023-05-12T16:03:23.711Z,2.20
2023-05-12T16:05:50.928Z,2.72
2023-05-12T16:08:20.146Z,2.38
2023-05-12T16:10:46.721Z,2.30
2023-05-12T16:13:15.642Z,2.60
2023-05-12T16:15:42.397Z,2.20
2023-05-12T16:18:11.386Z,2.40
2023-05-12T16:20:38.905Z,2.30
2023-05-12T16:23:05.600Z,2.45
2023-05-12T16:25:32.226Z,2.30
2023-05-12T16:27:59.022Z,2.08
2023-05-12T16:30:26.425Z,2.03
2023-05-12T16:32:53.073Z,2.22
2023-05-12T16:35:19.963Z,2.40
2023-05-12T16:37:47.278Z,2.28
2023-05-12T16:40:14.885Z,2.00
2023-05-12T16:42:41.893Z,2.28
2023-05-12T16:45:09.201Z,2.20
2023-05-12T16:47:35.795Z,2.50
2023-05-12T16:50:02.555Z,2.97
2023-05-12T16:52:29.191Z,2.10
2023-05-12T16:54:57.294Z,2.97
2023-05-12T16:57:24.215Z,2.75
2023-05-12T16:59:50.837Z,2.60
2023-05-12T17:02:17.707Z,2.45
2023-05-12T17:04:44.834Z,2.15
2023-05-12T17:07:11.468Z,2.70
2023-05-12T17:09:38.165Z,2.90
2023-05-12T17:12:06.869Z,2.17
2023-05-12T17:14:34.989Z,1.90
2023-05-12T17:17:02.420Z,2.00
2023-05-12T17:19:29.282Z,2.30
2023-05-12T17:22:00.886Z,2.15
2023-05-12T17:24:28.252Z,2.70
2023-05-12T17:27:02.087Z,2.40
2023-05-12T17:30:01.091Z,2.75
2023-05-12T17:32:44.137Z,2.83
2023-05-12T17:35:11.309Z,3.03
2023-05-12T17:37:42.393Z,2.10
2023-05-12T17:40:16.701Z,2.38
2023-05-12T17:42:46.415Z,2.30
2023-05-12T17:45:24.801Z,2.60
2023-05-12T17:48:20.510Z,2.50
2023-05-12T17:50:47.550Z,2.15
2023-05-12T17:53:44.611Z,2.65
2023-05-12T17:59:01.042Z,2.35
2023-05-12T18:01:28.372Z,2.50
2023-05-12T18:04:01.161Z,2.60
2023-05-12T18:06:29.089Z,2.97
2023-05-12T18:08:58.857Z,2.65
2023-05-12T18:11:25.961Z,2.38
2023-05-12T18:13:55.517Z,3.00
2023-05-12T18:16:28.489Z,2.35
2023-05-12T18:18:56.732Z,2.33
2023-05-12T18:21:23.488Z,2.40
2023-05-12T18:23:54.065Z,2.20
2023-05-12T18:26:27.088Z,2.30
2023-05-12T18:28:53.742Z,2.58
2023-05-12T18:31:20.628Z,2.42
2023-05-12T18:33:48.415Z,2.75
2023-05-12T18:36:18.796Z,2.80
2023-05-12T18:38:46.155Z,2.65
2023-05-12T18:41:12.821Z,2.60
2023-05-12T18:43:44.981Z,2.28
2023-05-12T18:46:12.611Z,2.50
2023-05-12T18:48:39.972Z,2.70
2023-05-12T18:51:06.808Z,2.53
2023-05-12T18:53:33.741Z,2.67
2023-05-12T18:56:00.562Z,2.70
2023-05-12T18:58:27.358Z,2.65
2023-05-12T19:00:54.419Z,2.97
2023-05-12T19:03:23.422Z,2.90
2023-05-12T19:05:50.099Z,2.33
2023-05-12T19:08:17.807Z,2.92
2023-05-12T19:10:45.508Z,3.00
2023-05-12T19:13:15.823Z,2.95
2023-05-12T19:15:44.902Z,2.58
2023-05-12T19:18:11.700Z,2.65
2023-05-12T19:20:38.524Z,3.20
2023-05-12T19:23:05.846Z,3.22
2023-05-12T19:25:32.580Z,3.20
2023-05-12T19:27:59.595Z,3.70
2023-05-12T19:30:30.680Z,2.97
2023-05-12T19:32:57.669Z,3.05
2023-05-12T19:35:24.652Z,3.33
2023-05-12T19:37:51.309Z,2.97
2023-05-12T19:40:18.205Z,2.95
2023-05-12T19:42:45.062Z,3.70
2023-05-12T19:45:12.022Z,3.03
2023-05-12T19:47:38.797Z,2.97
2023-05-12T19:50:06.071Z,2.92
2023-05-12T19:52:36.919Z,3.25
2023-05-12T19:55:03.865Z,3.38
2023-05-12T19:57:30.822Z,3.38
2023-05-12T19:59:57.358Z,3.22
2023-05-12T20:02:30.968Z,3.15
2023-05-12T20:05:01.270Z,3.60
2023-05-12T20:07:28.246Z,3.88
2023-05-12T20:09:55.007Z,4.10
2023-05-12T20:12:29.761Z,3.90
2023-05-12T20:14:56.735Z,4.18
2023-05-12T20:17:23.506Z,4.22
2023-05-12T20:19:50.502Z,3.67
2023-05-12T20:22:17.169Z,3.70
2023-05-12T20:24:44.952Z,3.92
2023-05-12T20:27:12.119Z,4.03
2023-05-12T20:29:38.691Z,4.00
2023-05-12T20:32:05.413Z,4.00
2023-05-12T20:34:32.041Z,3.97
2023-05-12T20:36:58.667Z,3.70
2023-05-12T20:39:25.325Z,4.00
2023-05-12T20:41:51.884Z,4.15
2023-05-12T20:44:18.524Z,4.25
2023-05-12T20:46:48.393Z,4.63
2023-05-12T20:49:14.949Z,4.30
2023-05-12T20:51:41.547Z,4.47
2023-05-12T20:54:08.108Z,4.95
2023-05-12T20:56:34.666Z,4.82
2023-05-12T20:59:01.309Z,5.07
2023-05-12T21:01:27.892Z,5.00
2023-05-12T21:03:54.572Z,4.88
2023-05-12T21:06:21.208Z,4.80
2023-05-12T21:08:47.817Z,5.18
2023-05-12T21:11:18.711Z,5.28
2023-05-12T21:13:47.132Z,4.63
2023-05-12T21:16:14.758Z,5.28
2023-05-12T21:18:41.522Z,5.60
2023-05-12T21:21:08.208Z,5.53
2023-05-12T21:23:36.375Z,5.15
2023-05-12T21:26:03.499Z,5.38
2023-05-12T21:28:30.170Z,5.55
2023-05-12T21:30:56.763Z,5.28
2023-05-12T21:33:23.456Z,5.53
2023-05-12T21:35:50.091Z,5.95
2023-05-12T21:38:17.103Z,5.80
2023-05-12T21:40:43.741Z,5.97
2023-05-12T21:43:10.448Z,5.93
2023-05-12T21:45:37.299Z,5.82
2023-05-12T21:48:04.214Z,6.47
2023-05-12T21:50:30.888Z,6.05
2023-05-12T21:52:57.526Z,6.25
2023-05-12T21:55:24.103Z,5.95
2023-05-12T21:57:50.686Z,6.68
2023-05-12T22:00:20.015Z,6.15
2023-05-12T22:02:47.779Z,6.28
2023-05-12T22:05:14.994Z,6.28
2023-05-12T22:07:41.823Z,6.70
2023-05-12T22:10:08.830Z,6.60
2023-05-12T22:12:35.420Z,7.28
2023-05-12T22:15:02.044Z,6.70
2023-05-12T22:17:28.680Z,7.35
2023-05-12T22:19:55.327Z,7.30
2023-05-12T22:22:21.903Z,7.45
2023-05-12T22:24:48.465Z,7.10
2023-05-12T22:27:15.576Z,7.43
2023-05-12T22:29:42.107Z,8.45
2023-05-12T22:32:08.633Z,8.63
2023-05-12T22:34:35.354Z,9.00
2023-05-12T22:37:02.020Z,8.45
2023-05-12T22:39:28.604Z,8.30
2023-05-12T22:41:55.395Z,9.70
2023-05-12T22:44:21.977Z,10.20
2023-05-12T22:46:48.585Z,9.23
2023-05-12T22:49:15.170Z,9.23
2023-05-12T22:51:41.721Z,9.25
2023-05-12T22:54:08.399Z,9.82
2023-05-12T22:56:35.035Z,9.15
2023-05-12T22:59:01.648Z,10.07
2023-05-12T23:01:28.322Z,10.25
2023-05-12T23:03:54.942Z,10.38
2023-05-12T23:06:21.558Z,9.60
2023-05-12T23:08:48.190Z,9.57
2023-05-12T23:11:15.638Z,9.55
2023-05-12T23:13:42.454Z,9.35
2023-05-12T23:16:09.147Z,10.35
2023-05-12T23:18:35.897Z,10.85
2023-05-12T23:21:02.637Z,9.90
2023-05-12T23:23:29.261Z,9.77
2023-05-12T23:25:55.852Z,9.98
2023-05-12T23:28:22.410Z,10.60
2023-05-12T23:30:49.080Z,9.88
2023-05-12T23:33:15.972Z,8.70
2023-05-12T23:35:42.584Z,9.18
2023-05-12T23:38:09.161Z,9.23
2023-05-12T23:40:39.140Z,9.48
2023-05-12T23:43:06.728Z,8.48
2023-05-12T23:45:33.827Z,8.55
2023-05-12T23:48:00.879Z,8.95
2023-05-12T23:50:27.656Z,8.93
2023-05-12T23:52:54.682Z,8.50
2023-05-12T23:55:21.763Z,8.15
2023-05-12T23:57:49.139Z,8.13
